Terminal Aerodrome Forecast
Issued by NWS

Home | Current Version | Previous Version | Graphics & Text | Print | Product List | Glossary On
Versions: 1 2 3 4 5 6 7 8 9 10 11 12 13 14
000
FTUS43 KGRB 021700
TAFAUW
TAF
KAUW 021723Z 0218/0318 23010G15KT P6SM SCT050 BKN080
     FM030100 21006KT P6SM SCT100
     FM031300 20012G20KT P6SM SCT040 SCT080 PROB30 0314/0318 3SM
      TSRA OVC020CB=

USA.gov is the U.S. government's official web portal to all federal, state and local government web resources and services.